createdAt,value
2023-04-06T00:00:23.841Z,13.60
2023-04-06T00:02:32.213Z,15.35
2023-04-06T00:04:40.402Z,16.05
2023-04-06T00:06:48.814Z,16.80
2023-04-06T00:08:59.948Z,15.63
2023-04-06T00:11:08.258Z,16.70
2023-04-06T00:13:16.380Z,16.35
2023-04-06T00:15:24.625Z,17.42
2023-04-06T00:17:33.112Z,16.30
2023-04-06T00:19:41.130Z,16.60
2023-04-06T00:21:49.196Z,16.35
2023-04-06T00:24:00.259Z,16.05
2023-04-06T00:26:08.542Z,16.90
2023-04-06T00:28:16.687Z,17.00
2023-04-06T00:30:27.521Z,15.40
2023-04-06T00:32:35.534Z,16.05
2023-04-06T00:34:43.660Z,15.95
2023-04-06T00:36:51.864Z,15.27
2023-04-06T00:39:28.716Z,14.75
2023-04-06T00:41:56.889Z,16.35
2023-04-06T00:44:14.212Z,15.77
2023-04-06T00:46:22.362Z,16.83
2023-04-06T00:48:32.353Z,15.00
2023-04-06T00:50:41.905Z,15.40
2023-04-06T00:52:50.069Z,15.80
2023-04-06T00:55:02.920Z,15.70
2023-04-06T00:57:11.442Z,17.50
2023-04-06T00:59:20.048Z,16.90
2023-04-06T01:01:29.902Z,17.63
2023-04-06T01:03:43.420Z,17.08
2023-04-06T01:05:59.424Z,16.15
2023-04-06T01:08:15.189Z,17.67
2023-04-06T01:10:31.074Z,15.10
2023-04-06T01:13:04.546Z,16.50
2023-04-06T01:15:28.314Z,16.42
2023-04-06T01:17:36.574Z,17.25
2023-04-06T01:19:54.838Z,16.65
2023-04-06T01:22:08.607Z,16.48
2023-04-06T01:24:28.517Z,15.90
2023-04-06T01:26:57.749Z,15.10
2023-04-06T01:29:08.745Z,16.42
2023-04-06T01:31:17.122Z,15.90
2023-04-06T01:33:29.709Z,16.58
2023-04-06T01:35:47.973Z,15.32
2023-04-06T01:37:59.617Z,15.10
2023-04-06T01:40:17.335Z,16.52
2023-04-06T01:42:31.523Z,15.30
2023-04-06T01:44:39.658Z,17.70
2023-04-06T01:46:52.842Z,17.52
2023-04-06T01:49:01.583Z,16.67
2023-04-06T01:51:15.161Z,15.82
2023-04-06T01:53:34.402Z,16.98
2023-04-06T01:55:49.844Z,19.27
2023-04-06T01:58:05.691Z,17.75
2023-04-06T02:00:20.088Z,17.45
2023-04-06T02:02:34.272Z,18.55
2023-04-06T02:04:46.816Z,17.70
2023-04-06T02:06:56.469Z,17.85
2023-04-06T02:09:07.413Z,17.80
2023-04-06T02:11:18.521Z,18.15
2023-04-06T02:13:30.848Z,17.85
2023-04-06T02:15:39.913Z,18.58
2023-04-06T02:17:48.162Z,17.65
2023-04-06T02:19:56.171Z,16.67
2023-04-06T02:22:04.560Z,18.80
2023-04-06T02:24:14.408Z,18.27
2023-04-06T02:26:25.115Z,16.60
2023-04-06T02:28:33.502Z,17.45
2023-04-06T02:30:43.958Z,18.40
2023-04-06T02:32:52.639Z,17.80
2023-04-06T02:35:01.491Z,16.58
2023-04-06T02:37:11.326Z,17.73
2023-04-06T02:39:19.748Z,17.10
2023-04-06T02:41:30.878Z,18.40
2023-04-06T02:43:40.599Z,17.40
2023-04-06T02:45:56.938Z,17.92
2023-04-06T02:48:07.756Z,16.67
2023-04-06T02:50:16.034Z,17.60
2023-04-06T02:52:32.160Z,17.45
2023-04-06T02:54:40.986Z,16.55
2023-04-06T02:56:51.641Z,18.98
2023-04-06T02:59:01.252Z,17.23
2023-04-06T03:01:12.972Z,16.10
2023-04-06T03:03:22.907Z,15.98
2023-04-06T03:05:31.919Z,16.48
2023-04-06T03:07:40.666Z,17.15
2023-04-06T03:09:53.732Z,17.30
2023-04-06T03:12:05.242Z,17.77
2023-04-06T03:14:23.665Z,17.15
2023-04-06T03:16:31.708Z,17.67
2023-04-06T03:18:42.271Z,17.67
2023-04-06T03:20:51.569Z,18.80
2023-04-06T03:23:01.368Z,17.88
2023-04-06T03:25:13.428Z,17.30
2023-04-06T03:27:27.668Z,17.52
2023-04-06T03:29:36.885Z,17.70
2023-04-06T03:31:46.090Z,17.02
2023-04-06T03:34:14.055Z,17.50
2023-04-06T03:36:22.379Z,18.58
2023-04-06T03:38:30.477Z,17.65
2023-04-06T03:40:38.839Z,18.65
2023-04-06T03:42:49.713Z,16.25
2023-04-06T03:44:58.025Z,15.73
2023-04-06T03:47:06.837Z,15.35
2023-04-06T03:49:15.010Z,18.45
2023-04-06T03:51:27.412Z,16.77
2023-04-06T03:53:43.919Z,17.52
2023-04-06T03:55:53.101Z,15.57
2023-04-06T03:58:03.816Z,16.85
2023-04-06T04:00:13.127Z,15.85
2023-04-06T04:02:21.443Z,16.25
2023-04-06T04:04:30.003Z,16.13
2023-04-06T04:06:40.508Z,16.77
2023-04-06T04:08:49.741Z,15.95
2023-04-06T04:10:58.047Z,16.55
2023-04-06T04:13:08.583Z,16.02
2023-04-06T04:15:19.210Z,16.58
2023-04-06T04:17:28.664Z,17.08
2023-04-06T04:19:39.224Z,17.63
2023-04-06T04:21:48.964Z,16.08
2023-04-06T04:24:02.560Z,15.52
2023-04-06T04:26:10.390Z,15.80
2023-04-06T04:28:20.972Z,16.50
2023-04-06T04:30:29.589Z,16.67
2023-04-06T04:32:37.638Z,14.90
2023-04-06T04:34:47.880Z,15.07
2023-04-06T04:37:06.738Z,14.75
2023-04-06T04:39:26.622Z,16.13
2023-04-06T04:41:42.379Z,16.48
2023-04-06T04:43:56.320Z,17.10
2023-04-06T04:46:08.197Z,16.40
2023-04-06T04:48:22.777Z,15.55
2023-04-06T04:50:39.501Z,16.42
2023-04-06T04:52:47.662Z,15.82
2023-04-06T04:54:59.088Z,17.05
2023-04-06T04:57:10.398Z,17.85
2023-04-06T04:59:24.879Z,16.20
2023-04-06T05:01:53.606Z,14.88
2023-04-06T05:04:06.667Z,15.98
2023-04-06T05:06:15.394Z,15.90
2023-04-06T05:08:27.000Z,15.45
2023-04-06T05:10:35.491Z,17.48
2023-04-06T05:12:44.865Z,17.05
2023-04-06T05:14:55.877Z,18.10
2023-04-06T05:17:05.130Z,20.80
2023-04-06T05:19:14.190Z,20.70
2023-04-06T05:21:27.520Z,19.42
2023-04-06T05:23:42.829Z,16.35
2023-04-06T05:25:51.087Z,15.75
2023-04-06T05:28:03.584Z,17.30
2023-04-06T05:30:19.089Z,16.67
2023-04-06T05:32:29.589Z,16.08
2023-04-06T05:34:38.162Z,15.73
2023-04-06T05:36:47.001Z,15.32
2023-04-06T05:39:02.560Z,16.60
2023-04-06T05:41:25.663Z,15.75
2023-04-06T05:43:34.561Z,15.35
2023-04-06T05:45:49.459Z,15.85
2023-04-06T05:47:58.066Z,14.55
2023-04-06T05:50:11.355Z,16.02
2023-04-06T05:52:20.916Z,14.25
2023-04-06T05:54:30.783Z,15.52
2023-04-06T05:56:42.674Z,15.90
2023-04-06T05:58:53.532Z,15.75
2023-04-06T06:01:11.122Z,15.60
2023-04-06T06:03:55.727Z,15.57
2023-04-06T06:06:08.832Z,14.85
2023-04-06T06:08:27.824Z,16.25
2023-04-06T06:10:37.381Z,14.68
2023-04-06T06:12:49.344Z,15.80
2023-04-06T06:14:59.637Z,15.20
2023-04-06T06:17:13.428Z,15.35
2023-04-06T06:19:22.207Z,15.18
2023-04-06T06:21:34.770Z,14.02
2023-04-06T06:23:43.967Z,15.25
2023-04-06T06:25:59.110Z,14.00
2023-04-06T06:28:08.742Z,15.70
2023-04-06T06:30:18.432Z,14.70
2023-04-06T06:32:30.585Z,14.10
2023-04-06T06:34:38.950Z,15.60
2023-04-06T06:36:50.517Z,15.05
2023-04-06T06:39:01.792Z,15.20
2023-04-06T06:41:09.929Z,15.55
2023-04-06T06:43:19.474Z,15.10
2023-04-06T06:45:39.781Z,14.57
2023-04-06T06:47:52.905Z,15.35
2023-04-06T06:50:04.133Z,16.42
2023-04-06T06:52:12.231Z,17.13
2023-04-06T06:54:20.459Z,15.70
2023-04-06T06:56:29.225Z,16.60
2023-04-06T06:58:37.714Z,18.60
2023-04-06T07:00:45.757Z,17.88
2023-04-06T07:02:56.463Z,18.48
2023-04-06T07:05:16.029Z,17.77
2023-04-06T07:07:33.304Z,16.08
2023-04-06T07:09:41.688Z,17.27
2023-04-06T07:11:49.763Z,16.60
2023-04-06T07:13:57.827Z,17.27
2023-04-06T07:16:05.985Z,16.80
2023-04-06T07:18:16.846Z,15.63
2023-04-06T07:20:25.134Z,15.38
2023-04-06T07:22:33.437Z,15.88
2023-04-06T07:24:41.532Z,17.35
2023-04-06T07:26:49.755Z,16.00
2023-04-06T07:28:59.110Z,16.05
2023-04-06T07:31:07.850Z,16.83
2023-04-06T07:33:19.154Z,16.20
2023-04-06T07:35:29.024Z,15.73
2023-04-06T07:37:37.154Z,17.17
2023-04-06T07:39:45.310Z,16.83
2023-04-06T07:41:53.997Z,17.60
2023-04-06T07:44:02.134Z,15.50
2023-04-06T07:46:10.922Z,16.17
2023-04-06T07:48:21.652Z,16.20
2023-04-06T07:50:29.749Z,16.02
2023-04-06T07:52:38.920Z,15.00
2023-04-06T07:54:50.610Z,16.20
2023-04-06T07:56:58.925Z,16.45
2023-04-06T07:59:07.011Z,17.20
2023-04-06T08:01:15.149Z,16.98
2023-04-06T08:03:26.908Z,18.60
2023-04-06T08:05:35.272Z,18.30
2023-04-06T08:07:43.808Z,18.35
2023-04-06T08:09:51.877Z,16.60
2023-04-06T08:12:03.194Z,17.45
2023-04-06T08:14:11.395Z,16.75
2023-04-06T08:16:19.790Z,16.35
2023-04-06T08:18:31.304Z,17.00
2023-04-06T08:20:39.371Z,16.45
2023-04-06T08:22:47.532Z,15.38
2023-04-06T08:24:55.731Z,16.05
2023-04-06T08:27:04.350Z,16.38
2023-04-06T08:29:12.726Z,16.17
2023-04-06T08:31:22.159Z,16.50
2023-04-06T08:33:32.914Z,14.38
2023-04-06T08:35:41.226Z,14.85
2023-04-06T08:37:49.402Z,14.55
2023-04-06T08:39:57.496Z,14.43
2023-04-06T08:42:06.877Z,14.95
2023-04-06T08:44:15.799Z,13.93
2023-04-06T08:46:30.217Z,15.35
2023-04-06T08:48:42.349Z,14.32
2023-04-06T08:50:51.522Z,15.10
2023-04-06T08:53:00.049Z,15.00
2023-04-06T08:55:09.235Z,15.15
2023-04-06T08:57:18.261Z,15.77
2023-04-06T08:59:27.937Z,14.85
2023-04-06T09:01:43.028Z,15.38
2023-04-06T09:03:55.401Z,14.45
2023-04-06T09:06:03.841Z,16.70
2023-04-06T09:08:12.484Z,16.52
2023-04-06T09:10:21.814Z,14.70
2023-04-06T09:12:31.329Z,16.50
2023-04-06T09:14:40.989Z,15.52
2023-04-06T09:16:51.089Z,14.45
2023-04-06T09:19:08.698Z,16.73
2023-04-06T09:21:17.435Z,16.52
2023-04-06T09:23:25.574Z,14.82
2023-04-06T09:25:34.007Z,16.08
2023-04-06T09:27:43.329Z,16.38
2023-04-06T09:29:53.383Z,14.05
2023-04-06T09:32:07.857Z,16.08
2023-04-06T09:34:25.077Z,14.57
2023-04-06T09:36:39.659Z,13.82
2023-04-06T09:38:58.513Z,14.05
2023-04-06T09:41:06.798Z,13.38
2023-04-06T09:43:14.893Z,14.90
2023-04-06T09:45:23.240Z,14.75
2023-04-06T09:47:31.764Z,14.32
2023-04-06T09:49:42.858Z,14.52
2023-04-06T09:51:57.609Z,12.98
2023-04-06T09:54:07.185Z,14.30
2023-04-06T09:56:21.670Z,13.55
2023-04-06T09:58:30.731Z,14.40
2023-04-06T10:00:46.360Z,13.25
2023-04-06T10:03:00.831Z,13.52
2023-04-06T10:05:17.151Z,13.35
2023-04-06T10:07:25.905Z,12.27
2023-04-06T10:09:37.245Z,11.77
2023-04-06T10:11:46.420Z,11.27
2023-04-06T10:13:54.878Z,11.25
2023-04-06T10:16:04.469Z,10.80
2023-04-06T10:18:13.379Z,11.65
2023-04-06T10:20:28.253Z,11.13
2023-04-06T10:22:43.389Z,12.63
2023-04-06T10:24:51.385Z,12.20
2023-04-06T10:27:02.738Z,11.80
2023-04-06T10:29:11.559Z,11.48
2023-04-06T10:31:28.592Z,9.70
2023-04-06T10:33:37.078Z,10.63
2023-04-06T10:35:48.494Z,9.55
2023-04-06T10:38:04.157Z,10.35
2023-04-06T10:40:22.492Z,11.35
2023-04-06T10:42:41.409Z,10.13
2023-04-06T10:44:50.436Z,11.30
2023-04-06T10:47:01.738Z,10.70
2023-04-06T10:49:16.700Z,10.15
2023-04-06T10:51:30.267Z,9.90
2023-04-06T10:53:38.602Z,9.68
2023-04-06T10:55:48.935Z,10.95
2023-04-06T10:57:56.952Z,10.35
2023-04-06T11:00:05.277Z,10.45
2023-04-06T11:02:23.824Z,9.50
2023-04-06T11:04:32.294Z,9.35
2023-04-06T11:06:43.207Z,10.30
2023-04-06T11:08:52.893Z,9.75
2023-04-06T11:11:11.680Z,9.40
2023-04-06T11:13:20.143Z,10.10
2023-04-06T11:15:28.727Z,9.15
2023-04-06T11:17:40.224Z,8.93
2023-04-06T11:19:48.341Z,8.63
2023-04-06T11:21:59.935Z,8.50
2023-04-06T11:24:10.321Z,9.45
2023-04-06T11:26:19.052Z,9.05
2023-04-06T11:28:27.106Z,8.95
2023-04-06T11:30:35.588Z,8.40
2023-04-06T11:32:45.557Z,9.48
2023-04-06T11:34:53.880Z,8.57
2023-04-06T11:37:07.257Z,10.35
2023-04-06T11:39:15.982Z,9.35
2023-04-06T11:41:31.176Z,8.48
2023-04-06T11:43:39.384Z,8.25
2023-04-06T11:45:47.748Z,8.20
2023-04-06T11:48:05.883Z,9.60
2023-04-06T11:50:16.177Z,8.25
2023-04-06T11:52:28.162Z,7.28
2023-04-06T11:54:38.095Z,6.22
2023-04-06T11:56:46.567Z,7.60
2023-04-06T11:58:54.654Z,7.57
2023-04-06T12:01:07.737Z,7.47
2023-04-06T12:03:16.042Z,6.93
2023-04-06T12:05:25.143Z,7.25
2023-04-06T12:07:36.468Z,8.00
2023-04-06T12:09:44.493Z,8.00
2023-04-06T12:11:52.510Z,7.68
2023-04-06T12:14:02.751Z,8.20
2023-04-06T12:16:11.107Z,7.90
2023-04-06T12:18:19.804Z,7.30
2023-04-06T12:20:27.909Z,6.70
2023-04-06T12:22:38.877Z,5.63
2023-04-06T12:24:46.949Z,6.40
2023-04-06T12:27:08.567Z,6.72
2023-04-06T12:29:18.036Z,6.35
2023-04-06T12:31:27.276Z,6.25
2023-04-06T12:33:35.610Z,6.20
2023-04-06T12:35:43.745Z,5.55
2023-04-06T12:37:54.828Z,6.07
2023-04-06T12:40:05.699Z,6.07
2023-04-06T12:42:14.999Z,6.20
2023-04-06T12:44:24.759Z,5.88
2023-04-06T12:46:34.933Z,5.60
2023-04-06T12:48:43.029Z,6.50
2023-04-06T12:50:58.949Z,5.97
2023-04-06T12:53:09.676Z,6.28
2023-04-06T12:55:17.949Z,5.00
2023-04-06T12:57:26.761Z,5.80
2023-04-06T12:59:36.719Z,5.55
2023-04-06T13:01:45.491Z,5.05
2023-04-06T13:03:53.804Z,6.13
2023-04-06T13:06:04.154Z,6.25
2023-04-06T13:08:14.900Z,5.93
2023-04-06T13:10:22.885Z,5.40
2023-04-06T13:12:31.387Z,5.38
2023-04-06T13:14:40.513Z,4.90
2023-04-06T13:16:48.738Z,4.82
2023-04-06T13:18:57.050Z,5.68
2023-04-06T13:21:05.147Z,4.53
2023-04-06T13:23:15.939Z,5.07
2023-04-06T13:25:24.371Z,4.78
2023-04-06T13:27:35.153Z,4.63
2023-04-06T13:29:43.368Z,5.53
2023-04-06T13:31:51.605Z,5.20
2023-04-06T13:33:59.844Z,7.10
2023-04-06T13:36:10.248Z,6.68
2023-04-06T13:38:21.631Z,6.45
2023-04-06T13:40:29.848Z,6.53
2023-04-06T13:42:39.086Z,5.15
2023-04-06T13:44:48.018Z,6.50
2023-04-06T13:46:56.382Z,7.30
2023-04-06T13:49:04.488Z,7.35
2023-04-06T13:51:13.512Z,6.50
2023-04-06T13:53:24.248Z,6.10
2023-04-06T13:55:32.551Z,8.52
2023-04-06T13:57:40.521Z,6.90
2023-04-06T13:59:49.125Z,6.75
2023-04-06T14:01:57.209Z,7.97
2023-04-06T14:04:05.692Z,6.75
2023-04-06T14:06:29.756Z,7.35
2023-04-06T14:08:42.333Z,6.65
2023-04-06T14:10:50.193Z,6.65
2023-04-06T14:12:59.295Z,7.35
2023-04-06T14:15:07.953Z,6.38
2023-04-06T14:17:16.006Z,6.78
2023-04-06T14:19:24.336Z,5.78
2023-04-06T14:21:32.620Z,6.13
2023-04-06T14:23:43.469Z,7.03
2023-04-06T14:25:52.561Z,6.80
2023-04-06T14:28:02.625Z,6.95
2023-04-06T14:30:12.250Z,5.93
2023-04-06T14:32:20.377Z,5.93
2023-04-06T14:34:28.259Z,5.90
2023-04-06T14:36:39.467Z,6.43
2023-04-06T14:38:50.222Z,6.72
2023-04-06T14:40:58.024Z,6.30
2023-04-06T14:43:06.074Z,6.15
2023-04-06T14:45:14.742Z,6.00
2023-04-06T14:47:23.019Z,5.72
2023-04-06T14:49:30.973Z,6.45
2023-04-06T14:51:40.187Z,6.60
2023-04-06T14:53:51.152Z,7.40
2023-04-06T14:56:00.040Z,6.50
2023-04-06T14:58:08.161Z,6.40
2023-04-06T15:00:17.601Z,6.75
2023-04-06T15:02:25.704Z,6.43
2023-04-06T15:04:34.031Z,7.10
2023-04-06T15:06:42.214Z,7.10
2023-04-06T15:08:53.344Z,6.35
2023-04-06T15:11:03.753Z,6.15
2023-04-06T15:13:12.364Z,6.28
2023-04-06T15:15:20.692Z,6.60
2023-04-06T15:17:29.555Z,7.30
2023-04-06T15:19:37.743Z,6.80
2023-04-06T15:21:45.811Z,7.15
2023-04-06T15:23:56.760Z,6.82
2023-04-06T15:26:05.203Z,6.18
2023-04-06T15:28:13.173Z,7.10
2023-04-06T15:30:21.473Z,6.60
2023-04-06T15:32:29.824Z,5.97
2023-04-06T15:34:37.817Z,6.60
2023-04-06T15:36:46.970Z,6.55
2023-04-06T15:38:57.678Z,6.30
2023-04-06T15:41:06.479Z,6.15
2023-04-06T15:43:14.962Z,5.80
2023-04-06T15:45:23.145Z,6.28
2023-04-06T15:47:31.203Z,6.00
2023-04-06T15:49:39.152Z,6.97
2023-04-06T15:51:47.470Z,6.30
2023-04-06T15:53:58.835Z,5.25
2023-04-06T15:56:08.786Z,5.85
2023-04-06T15:58:16.805Z,6.07
2023-04-06T16:00:25.762Z,5.82
2023-04-06T16:02:33.931Z,5.53
2023-04-06T16:04:42.075Z,6.30
2023-04-06T16:06:50.822Z,6.78
2023-04-06T16:09:01.533Z,5.75
2023-04-06T16:11:09.562Z,6.95
2023-04-06T16:13:17.557Z,7.68
2023-04-06T16:15:25.761Z,6.53
2023-04-06T16:17:33.699Z,6.85
2023-04-06T16:19:42.350Z,6.20
2023-04-06T16:21:50.501Z,6.53
2023-04-06T16:24:01.204Z,7.60
2023-04-06T16:26:15.251Z,6.15
2023-04-06T16:28:24.321Z,6.90
2023-04-06T16:30:32.724Z,6.60
2023-04-06T16:32:40.736Z,7.07
2023-04-06T16:34:50.199Z,6.70
2023-04-06T16:36:59.660Z,6.75
2023-04-06T16:39:11.412Z,6.95
2023-04-06T16:41:19.378Z,6.82
2023-04-06T16:43:27.713Z,7.40
2023-04-06T16:45:36.109Z,7.60
2023-04-06T16:47:44.037Z,6.53
2023-04-06T16:49:52.214Z,7.00
2023-04-06T16:52:03.113Z,7.60
2023-04-06T16:54:13.881Z,7.85
2023-04-06T16:56:22.046Z,7.40
2023-04-06T16:58:30.236Z,7.13
2023-04-06T17:00:40.900Z,7.00
2023-04-06T17:02:50.652Z,7.22
2023-04-06T17:04:58.793Z,7.40
2023-04-06T17:07:07.014Z,7.70
2023-04-06T17:09:17.712Z,6.93
2023-04-06T17:11:31.633Z,7.85
2023-04-06T17:13:44.382Z,7.82
2023-04-06T17:15:52.418Z,7.97
2023-04-06T17:18:00.722Z,8.95
2023-04-06T17:20:10.343Z,8.85
2023-04-06T17:22:21.161Z,8.77
2023-04-06T17:24:31.967Z,9.23
2023-04-06T17:26:41.312Z,9.27
2023-04-06T17:28:49.497Z,9.50
2023-04-06T17:30:57.872Z,9.07
2023-04-06T17:33:06.044Z,10.32
2023-04-06T17:35:14.454Z,10.02
2023-04-06T17:37:22.686Z,11.88
2023-04-06T17:39:33.208Z,11.85
2023-04-06T17:41:42.145Z,12.13
2023-04-06T17:43:51.532Z,10.15
2023-04-06T17:45:59.536Z,8.95
2023-04-06T17:48:07.885Z,10.43
2023-04-06T17:50:16.549Z,9.63
2023-04-06T17:52:24.523Z,9.27
2023-04-06T17:54:36.381Z,9.30
2023-04-06T17:56:44.629Z,7.10
2023-04-06T17:58:52.808Z,7.53
2023-04-06T18:01:00.780Z,7.68
2023-04-06T18:03:09.068Z,6.70
2023-04-06T18:05:16.978Z,6.65
2023-04-06T18:07:25.029Z,6.25
2023-04-06T18:09:37.268Z,7.68
2023-04-06T18:11:45.614Z,7.50
2023-04-06T18:13:53.667Z,6.72
2023-04-06T18:16:04.126Z,6.80
2023-04-06T18:18:12.065Z,7.30
2023-04-06T18:20:20.841Z,6.45
2023-04-06T18:22:28.825Z,6.90
2023-04-06T18:24:42.589Z,6.70
2023-04-06T18:26:52.471Z,8.18
2023-04-06T18:29:00.416Z,8.57
2023-04-06T18:31:08.473Z,8.18
2023-04-06T18:33:16.536Z,7.30
2023-04-06T18:35:24.363Z,7.82
2023-04-06T18:37:32.683Z,7.70
2023-04-06T18:39:47.144Z,8.35
2023-04-06T18:41:55.247Z,8.25
2023-04-06T18:44:03.470Z,8.23
2023-04-06T18:46:14.923Z,7.15
2023-04-06T18:48:22.858Z,7.03
2023-04-06T18:50:31.579Z,7.90
2023-04-06T18:52:40.039Z,8.30
2023-04-06T18:54:50.997Z,7.78
2023-04-06T18:57:08.129Z,7.25
2023-04-06T18:59:21.296Z,7.43
2023-04-06T19:01:32.119Z,8.88
2023-04-06T19:03:41.046Z,7.43
2023-04-06T19:05:49.475Z,7.30
2023-04-06T19:07:57.420Z,6.60
2023-04-06T19:10:09.639Z,7.30
2023-04-06T19:12:17.579Z,7.07
2023-04-06T19:14:25.651Z,6.50
2023-04-06T19:16:33.743Z,7.65
2023-04-06T19:18:43.572Z,6.88
2023-04-06T19:20:51.981Z,7.40
2023-04-06T19:23:00.633Z,6.80
2023-04-06T19:25:12.316Z,6.47
2023-04-06T19:27:20.144Z,5.93
2023-04-06T19:29:28.525Z,6.35
2023-04-06T19:31:37.046Z,6.15
2023-04-06T19:33:45.583Z,6.10
2023-04-06T19:35:53.477Z,6.85
2023-04-06T19:38:01.501Z,5.85
2023-04-06T19:40:13.371Z,5.75
2023-04-06T19:42:22.263Z,5.82
2023-04-06T19:44:30.176Z,5.40
2023-04-06T19:46:38.248Z,5.70
2023-04-06T19:48:46.193Z,5.45
2023-04-06T19:50:56.755Z,5.18
2023-04-06T19:53:04.756Z,4.93
2023-04-06T19:55:15.466Z,5.95
2023-04-06T19:57:23.462Z,6.43
2023-04-06T19:59:32.144Z,6.07
2023-04-06T20:01:40.188Z,5.90
2023-04-06T20:03:48.409Z,5.00
2023-04-06T20:05:56.834Z,4.47
2023-04-06T20:08:04.883Z,5.50
2023-04-06T20:10:15.950Z,4.47
2023-04-06T20:12:23.961Z,4.28
2023-04-06T20:14:32.392Z,3.33
2023-04-06T20:16:40.317Z,3.80
2023-04-06T20:18:48.214Z,3.95
2023-04-06T20:20:56.907Z,3.83
2023-04-06T20:23:04.835Z,4.28
2023-04-06T20:25:15.856Z,3.70
2023-04-06T20:27:26.425Z,4.00
2023-04-06T20:29:34.549Z,4.35
2023-04-06T20:31:42.442Z,4.13
2023-04-06T20:33:55.654Z,4.10
2023-04-06T20:36:04.335Z,4.80
2023-04-06T20:38:12.153Z,3.95
2023-04-06T20:40:23.847Z,4.13
2023-04-06T20:42:31.917Z,4.60
2023-04-06T20:44:40.074Z,5.55
2023-04-06T20:46:48.688Z,5.15
2023-04-06T20:48:59.733Z,4.60
2023-04-06T20:51:09.521Z,4.75
2023-04-06T20:53:17.524Z,5.60
2023-04-06T20:55:28.110Z,5.72
2023-04-06T20:57:36.130Z,5.90
2023-04-06T20:59:45.317Z,5.03
2023-04-06T21:01:53.215Z,4.88
2023-04-06T21:04:02.667Z,5.93
2023-04-06T21:06:12.557Z,5.82
2023-04-06T21:08:20.558Z,5.95
2023-04-06T21:10:31.471Z,6.60
2023-04-06T21:12:39.479Z,6.85
2023-04-06T21:14:47.572Z,5.90
2023-04-06T21:16:56.298Z,5.78
2023-04-06T21:19:04.337Z,6.68
2023-04-06T21:21:12.369Z,6.93
2023-04-06T21:23:20.240Z,6.38
2023-04-06T21:25:30.823Z,6.47
2023-04-06T21:27:38.959Z,6.65
2023-04-06T21:29:47.037Z,6.30
2023-04-06T21:31:55.997Z,6.28
2023-04-06T21:34:04.273Z,5.45
2023-04-06T21:36:12.575Z,6.80
2023-04-06T21:38:20.733Z,7.68
2023-04-06T21:40:31.419Z,7.60
2023-04-06T21:42:39.550Z,7.05
2023-04-06T21:44:50.080Z,7.40
2023-04-06T21:46:58.798Z,7.10
2023-04-06T21:49:07.214Z,8.30
2023-04-06T21:51:20.292Z,7.93
2023-04-06T21:53:31.926Z,8.15
2023-04-06T21:55:45.908Z,8.15
2023-04-06T21:57:53.886Z,8.25
2023-04-06T22:00:02.046Z,8.18
2023-04-06T22:02:10.163Z,7.53
2023-04-06T22:04:18.754Z,8.85
2023-04-06T22:06:27.360Z,7.07
2023-04-06T22:08:35.750Z,8.88
2023-04-06T22:10:46.343Z,8.20
2023-04-06T22:12:54.336Z,8.60
2023-04-06T22:15:02.132Z,8.10
2023-04-06T22:17:10.023Z,9.10
2023-04-06T22:19:18.128Z,8.50
2023-04-06T22:21:26.287Z,9.75
2023-04-06T22:23:35.079Z,9.00
2023-04-06T22:25:45.715Z,9.60
2023-04-06T22:27:53.682Z,9.18
2023-04-06T22:30:04.551Z,9.73
2023-04-06T22:32:12.468Z,8.90
2023-04-06T22:34:20.339Z,8.65
2023-04-06T22:36:28.311Z,8.60
2023-04-06T22:38:37.193Z,8.38
2023-04-06T22:40:47.688Z,8.85
2023-04-06T22:42:55.862Z,8.85
2023-04-06T22:45:03.775Z,9.80
2023-04-06T22:47:12.895Z,8.70
2023-04-06T22:49:20.826Z,8.52
2023-04-06T22:51:28.802Z,8.65
2023-04-06T22:53:36.902Z,8.90
2023-04-06T22:55:47.600Z,10.57
2023-04-06T22:57:55.761Z,9.43
2023-04-06T23:00:05.777Z,10.20
2023-04-06T23:02:14.422Z,9.73
2023-04-06T23:04:22.501Z,10.02
2023-04-06T23:06:30.482Z,9.60
2023-04-06T23:08:38.368Z,10.10
2023-04-06T23:10:50.026Z,9.68
2023-04-06T23:12:57.933Z,9.00
2023-04-06T23:15:05.870Z,9.93
2023-04-06T23:17:16.218Z,9.82
2023-04-06T23:19:24.337Z,11.00
2023-04-06T23:21:33.246Z,9.63
2023-04-06T23:23:41.617Z,9.00
2023-04-06T23:25:52.956Z,9.35
2023-04-06T23:28:02.184Z,9.40
2023-04-06T23:30:12.234Z,9.55
2023-04-06T23:32:20.416Z,9.40
2023-04-06T23:34:29.778Z,9.00
2023-04-06T23:36:38.005Z,9.77
2023-04-06T23:38:46.517Z,10.30
2023-04-06T23:40:57.626Z,9.38
2023-04-06T23:43:05.764Z,9.40
2023-04-06T23:45:14.103Z,10.02
2023-04-06T23:47:22.784Z,9.07
2023-04-06T23:49:32.104Z,9.50
2023-04-06T23:51:39.979Z,9.32
2023-04-06T23:53:47.845Z,9.13
2023-04-06T23:56:00.405Z,9.00
2023-04-06T23:58:08.288Z,10.48
